createdAt,value
2022-09-18T00:02:05.187Z,14.65
2022-09-18T00:04:34.007Z,14.48
2022-09-18T00:07:02.827Z,14.27
2022-09-18T00:09:31.870Z,14.06
2022-09-18T00:12:00.707Z,13.71
2022-09-18T00:14:29.416Z,13.47
2022-09-18T00:16:59.607Z,13.50
2022-09-18T00:19:28.833Z,13.44
2022-09-18T00:21:58.348Z,13.24
2022-09-18T00:24:27.121Z,13.13
2022-09-18T00:26:55.829Z,12.85
2022-09-18T00:29:25.168Z,12.54
2022-09-18T00:31:55.039Z,12.44
2022-09-18T00:34:25.426Z,12.34
2022-09-18T00:36:54.334Z,12.28
2022-09-18T00:39:23.496Z,12.16
2022-09-18T00:41:52.296Z,12.19
2022-09-18T00:44:40.385Z,12.13
2022-09-18T00:47:33.821Z,12.14
2022-09-18T00:50:08.886Z,12.05
2022-09-18T00:52:47.833Z,11.99
2022-09-18T00:55:17.638Z,11.85
2022-09-18T00:57:50.764Z,11.68
2022-09-18T01:00:19.590Z,11.56
2022-09-18T01:02:49.157Z,11.55
2022-09-18T01:05:27.949Z,11.57
2022-09-18T01:08:18.291Z,11.58
2022-09-18T01:11:02.004Z,11.51
2022-09-18T01:13:34.466Z,11.45
2022-09-18T01:16:10.242Z,11.34
2022-09-18T01:18:48.450Z,11.31
2022-09-18T01:21:21.362Z,11.12
2022-09-18T01:24:29.837Z,11.06
2022-09-18T01:27:02.841Z,11.10
2022-09-18T01:29:46.742Z,11.11
2022-09-18T01:32:23.476Z,11.15
2022-09-18T01:35:09.620Z,11.14
2022-09-18T01:37:51.516Z,11.08
2022-09-18T01:40:26.103Z,11.01
2022-09-18T01:42:57.875Z,11.08
2022-09-18T01:45:31.434Z,11.02
2022-09-18T01:48:05.086Z,10.95
2022-09-18T01:50:40.227Z,11.00
2022-09-18T01:53:16.531Z,10.89
2022-09-18T01:55:51.786Z,10.99
2022-09-18T01:58:25.305Z,10.96
2022-09-18T02:00:59.058Z,11.01
2022-09-18T02:03:31.134Z,11.08
2022-09-18T02:06:06.332Z,11.05
2022-09-18T02:08:41.909Z,11.05
2022-09-18T02:11:13.480Z,10.96
2022-09-18T02:13:45.837Z,10.94
2022-09-18T02:16:23.971Z,10.88
2022-09-18T02:18:57.285Z,10.88
2022-09-18T02:21:29.645Z,10.78
2022-09-18T02:24:04.427Z,10.71
2022-09-18T02:26:36.703Z,10.68
2022-09-18T02:29:08.004Z,10.64
2022-09-18T02:31:38.956Z,10.63
2022-09-18T02:34:09.651Z,10.39
2022-09-18T02:37:12.499Z,10.36
2022-09-18T02:39:56.367Z,10.28
2022-09-18T02:42:41.264Z,10.26
2022-09-18T02:45:21.821Z,10.29
2022-09-18T02:48:06.770Z,10.17
2022-09-18T02:50:49.075Z,10.26
2022-09-18T02:53:25.651Z,10.34
2022-09-18T02:56:02.697Z,10.23
2022-09-18T02:58:39.811Z,10.20
2022-09-18T03:01:11.720Z,10.14
2022-09-18T03:03:42.230Z,10.25
2022-09-18T03:06:13.174Z,10.15
2022-09-18T03:08:42.214Z,10.02
2022-09-18T03:11:11.059Z,10.07
2022-09-18T03:13:39.774Z,10.01
2022-09-18T03:16:08.533Z,9.92
2022-09-18T03:18:37.414Z,9.80
2022-09-18T03:21:07.743Z,9.88
2022-09-18T03:23:36.519Z,9.80
2022-09-18T03:26:19.235Z,9.74
2022-09-18T03:28:48.573Z,9.65
2022-09-18T03:31:18.501Z,9.69
2022-09-18T03:33:48.303Z,9.61
2022-09-18T03:36:18.652Z,9.59
2022-09-18T03:38:47.492Z,9.63
2022-09-18T03:41:16.418Z,9.62
2022-09-18T03:43:45.370Z,9.62
2022-09-18T03:46:14.874Z,9.61
2022-09-18T03:48:43.720Z,9.51
2022-09-18T03:51:12.406Z,9.54
2022-09-18T03:53:42.589Z,9.50
2022-09-18T03:56:31.676Z,9.38
2022-09-18T03:59:18.914Z,9.50
2022-09-18T04:02:08.014Z,9.50
2022-09-18T04:04:55.670Z,9.48
2022-09-18T04:07:42.902Z,9.48
2022-09-18T04:10:32.016Z,9.60
2022-09-18T04:13:00.738Z,9.59
2022-09-18T04:15:33.929Z,9.52
2022-09-18T04:18:03.097Z,9.56
2022-09-18T04:20:31.935Z,9.71
2022-09-18T04:23:02.262Z,9.61
2022-09-18T04:25:32.463Z,9.61
2022-09-18T04:28:01.165Z,9.67
2022-09-18T04:30:30.469Z,9.67
2022-09-18T04:32:59.499Z,9.55
2022-09-18T04:35:28.766Z,9.70
2022-09-18T04:37:57.787Z,9.66
2022-09-18T04:40:27.006Z,9.62
2022-09-18T04:42:57.377Z,9.75
2022-09-18T04:45:26.170Z,9.68
2022-09-18T04:47:54.874Z,9.74
2022-09-18T04:50:26.158Z,9.80
2022-09-18T04:53:17.578Z,9.93
2022-09-18T04:55:49.415Z,9.90
2022-09-18T04:58:21.193Z,10.03
2022-09-18T05:00:56.340Z,9.97
2022-09-18T05:03:25.394Z,10.06
2022-09-18T05:05:55.211Z,9.94
2022-09-18T05:08:24.205Z,10.02
2022-09-18T05:10:53.328Z,10.07
2022-09-18T05:13:24.274Z,10.04
2022-09-18T05:16:04.514Z,10.00
2022-09-18T05:18:35.075Z,10.08
2022-09-18T05:21:06.387Z,10.04
2022-09-18T05:23:36.230Z,10.07
2022-09-18T05:26:05.441Z,10.18
2022-09-18T05:28:35.617Z,10.27
2022-09-18T05:31:04.816Z,10.28
2022-09-18T05:33:46.299Z,10.45
2022-09-18T05:36:15.787Z,10.85
2022-09-18T05:38:48.532Z,10.95
2022-09-18T05:41:20.037Z,11.07
2022-09-18T05:43:50.548Z,11.16
2022-09-18T05:46:19.642Z,11.14
2022-09-18T05:48:56.744Z,11.38
2022-09-18T05:51:26.256Z,12.12
2022-09-18T05:53:55.354Z,12.26
2022-09-18T05:56:33.244Z,12.38
2022-09-18T05:59:04.523Z,12.28
2022-09-18T06:01:33.829Z,11.97
2022-09-18T06:04:18.542Z,11.81
2022-09-18T06:07:15.857Z,11.55
2022-09-18T06:09:44.773Z,11.31
2022-09-18T06:12:14.184Z,11.28
2022-09-18T06:14:44.487Z,11.26
2022-09-18T06:17:13.403Z,11.21
2022-09-18T06:19:42.467Z,11.28
2022-09-18T06:22:12.211Z,11.24
2022-09-18T06:24:41.147Z,11.24
2022-09-18T06:27:13.043Z,11.27
2022-09-18T06:29:43.658Z,11.28
2022-09-18T06:32:25.192Z,11.38
2022-09-18T06:34:56.117Z,11.48
2022-09-18T06:37:27.269Z,11.69
2022-09-18T06:40:10.903Z,11.94
2022-09-18T06:43:05.761Z,12.05
2022-09-18T06:45:54.902Z,12.72
2022-09-18T06:48:27.209Z,13.23
2022-09-18T06:50:57.650Z,13.66
2022-09-18T06:53:28.152Z,13.75
2022-09-18T06:56:03.712Z,14.07
2022-09-18T06:58:36.869Z,14.39
2022-09-18T07:01:07.783Z,14.17
2022-09-18T07:03:42.733Z,13.82
2022-09-18T07:06:17.138Z,13.71
2022-09-18T07:08:49.324Z,13.69
2022-09-18T07:11:37.986Z,13.49
2022-09-18T07:14:07.869Z,13.44
2022-09-18T07:16:38.390Z,13.25
2022-09-18T07:19:07.949Z,13.22
2022-09-18T07:21:38.882Z,13.13
2022-09-18T07:24:08.582Z,13.13
2022-09-18T07:26:37.908Z,13.23
2022-09-18T07:29:10.243Z,13.40
2022-09-18T07:31:41.427Z,13.55
2022-09-18T07:34:12.870Z,13.79
2022-09-18T07:36:41.858Z,13.78
2022-09-18T07:39:10.756Z,13.53
2022-09-18T07:42:06.800Z,13.45
2022-09-18T07:44:38.600Z,13.65
2022-09-18T07:47:09.309Z,13.45
2022-09-18T07:49:41.256Z,13.46
2022-09-18T07:52:11.112Z,13.52
2022-09-18T07:54:47.874Z,13.34
2022-09-18T07:57:32.981Z,13.13
2022-09-18T08:00:23.365Z,12.92
2022-09-18T08:03:02.672Z,12.60
2022-09-18T08:05:54.559Z,12.50
2022-09-18T08:08:23.519Z,12.38
2022-09-18T08:11:31.191Z,12.42
2022-09-18T08:14:10.895Z,13.13
2022-09-18T08:16:42.743Z,13.61
2022-09-18T08:19:27.877Z,13.75
2022-09-18T08:22:26.232Z,14.30
2022-09-18T08:24:58.579Z,14.81
2022-09-18T08:27:27.672Z,15.02
2022-09-18T08:29:58.056Z,15.19
2022-09-18T08:32:27.153Z,15.36
2022-09-18T08:35:00.276Z,15.02
2022-09-18T08:37:33.434Z,14.79
2022-09-18T08:40:24.588Z,14.76
2022-09-18T08:43:09.692Z,14.97
2022-09-18T08:45:53.881Z,15.11
2022-09-18T08:48:25.893Z,15.04
2022-09-18T08:51:01.870Z,15.34
2022-09-18T08:53:36.509Z,15.33
2022-09-18T08:56:31.093Z,15.45
2022-09-18T08:59:35.202Z,15.52
2022-09-18T09:02:25.066Z,15.87
2022-09-18T09:05:02.433Z,15.71
2022-09-18T09:07:53.355Z,15.89
2022-09-18T09:10:39.235Z,15.96
2022-09-18T09:13:28.286Z,16.22
2022-09-18T09:16:03.758Z,16.43
2022-09-18T09:18:44.123Z,16.22
2022-09-18T09:21:22.342Z,16.12
2022-09-18T09:24:17.450Z,16.12
2022-09-18T09:27:22.514Z,15.78
2022-09-18T09:30:28.044Z,15.63
2022-09-18T09:33:21.407Z,15.47
2022-09-18T09:36:11.013Z,15.31
2022-09-18T09:39:07.435Z,15.27
2022-09-18T09:41:44.036Z,14.86
2022-09-18T09:44:29.280Z,14.65
2022-09-18T09:47:25.158Z,14.39
2022-09-18T09:50:07.669Z,14.19
2022-09-18T09:52:40.885Z,13.90
2022-09-18T09:55:31.000Z,13.70
2022-09-18T09:58:13.718Z,13.58
2022-09-18T10:00:51.959Z,13.55
2022-09-18T10:03:35.109Z,13.70
2022-09-18T10:06:14.417Z,14.31
2022-09-18T10:08:49.092Z,14.73
2022-09-18T10:11:19.542Z,14.62
2022-09-18T10:14:00.399Z,14.66
2022-09-18T10:16:35.176Z,14.70
2022-09-18T10:19:05.515Z,14.70
2022-09-18T10:21:37.609Z,14.33
2022-09-18T10:24:18.841Z,14.21
2022-09-18T10:26:54.816Z,14.21
2022-09-18T10:29:23.600Z,14.15
2022-09-18T10:31:58.278Z,14.04
2022-09-18T10:34:40.532Z,14.06
2022-09-18T10:37:16.742Z,13.93
2022-09-18T10:39:52.152Z,14.06
2022-09-18T10:42:25.731Z,13.88
2022-09-18T10:45:04.970Z,14.22
2022-09-18T10:47:38.454Z,14.42
2022-09-18T10:50:19.284Z,14.47
2022-09-18T10:52:54.284Z,14.49
2022-09-18T10:55:32.838Z,14.32
2022-09-18T10:58:14.965Z,14.22
2022-09-18T11:00:56.532Z,14.32
2022-09-18T11:03:39.158Z,14.26
2022-09-18T11:06:16.193Z,14.26
2022-09-18T11:08:50.763Z,14.18
2022-09-18T11:11:27.478Z,14.23
2022-09-18T11:14:01.933Z,14.33
2022-09-18T11:16:44.127Z,14.61
2022-09-18T11:19:24.939Z,14.65
2022-09-18T11:21:56.416Z,14.68
2022-09-18T11:24:28.115Z,14.61
2022-09-18T11:27:20.242Z,14.59
2022-09-18T11:29:51.114Z,14.47
2022-09-18T11:32:22.874Z,14.57
2022-09-18T11:34:55.122Z,14.49
2022-09-18T11:37:31.934Z,14.12
2022-09-18T11:40:06.432Z,14.14
2022-09-18T11:42:42.780Z,14.11
2022-09-18T11:45:33.843Z,13.98
2022-09-18T11:48:16.804Z,13.91
2022-09-18T11:50:48.111Z,13.92
2022-09-18T11:53:21.753Z,13.92
2022-09-18T11:56:01.298Z,13.92
2022-09-18T11:58:35.894Z,13.75
2022-09-18T12:01:15.880Z,14.00
2022-09-18T12:03:51.994Z,14.10
2022-09-18T12:06:30.037Z,14.13
2022-09-18T12:09:04.803Z,14.37
2022-09-18T12:11:42.843Z,14.71
2022-09-18T12:14:18.830Z,14.68
2022-09-18T12:17:13.148Z,14.83
2022-09-18T12:19:48.503Z,14.91
2022-09-18T12:22:23.942Z,15.64
2022-09-18T12:24:53.581Z,16.03
2022-09-18T12:27:48.527Z,16.45
2022-09-18T12:30:20.023Z,16.85
2022-09-18T12:33:08.904Z,16.76
2022-09-18T12:35:51.045Z,16.52
2022-09-18T12:38:33.700Z,16.45
2022-09-18T12:41:17.218Z,17.07
2022-09-18T12:44:05.862Z,17.33
2022-09-18T12:46:45.247Z,17.24
2022-09-18T12:49:40.303Z,17.54
2022-09-18T12:52:23.885Z,17.76
2022-09-18T12:55:15.992Z,18.05
2022-09-18T12:57:57.518Z,17.88
2022-09-18T13:00:29.504Z,17.43
2022-09-18T13:03:04.680Z,16.95
2022-09-18T13:05:38.823Z,16.70
2022-09-18T13:08:13.076Z,16.43
2022-09-18T13:10:44.064Z,16.40
2022-09-18T13:13:17.548Z,16.12
2022-09-18T13:15:50.818Z,16.19
2022-09-18T13:18:32.343Z,16.24
2022-09-18T13:21:07.463Z,16.06
2022-09-18T13:23:40.636Z,16.04
2022-09-18T13:26:13.903Z,15.97
2022-09-18T13:28:43.721Z,16.04
2022-09-18T13:31:31.638Z,16.04
2022-09-18T13:34:04.537Z,16.18
2022-09-18T13:36:37.811Z,16.26
2022-09-18T13:39:16.182Z,16.38
2022-09-18T13:41:47.569Z,16.47
2022-09-18T13:44:21.590Z,16.34
2022-09-18T13:46:52.078Z,16.24
2022-09-18T13:49:23.863Z,16.16
2022-09-18T13:51:54.318Z,15.94
2022-09-18T13:54:30.070Z,15.92
2022-09-18T13:57:19.984Z,15.77
2022-09-18T13:59:52.022Z,15.59
2022-09-18T14:02:31.077Z,15.45
2022-09-18T14:05:03.082Z,15.43
2022-09-18T14:07:55.320Z,15.45
2022-09-18T14:11:16.825Z,15.48
2022-09-18T14:13:51.967Z,15.36
2022-09-18T14:16:40.994Z,15.29
2022-09-18T14:19:28.315Z,15.22
2022-09-18T14:21:57.995Z,15.12
2022-09-18T14:25:00.840Z,14.99
2022-09-18T14:27:50.933Z,14.87
2022-09-18T14:30:22.966Z,14.78
2022-09-18T14:33:04.997Z,14.80
2022-09-18T14:35:45.252Z,14.69
2022-09-18T14:38:24.308Z,14.70
2022-09-18T14:41:01.135Z,14.65
2022-09-18T14:43:30.154Z,14.68
2022-09-18T14:45:59.167Z,14.60
2022-09-18T14:48:30.634Z,14.71
2022-09-18T14:51:01.871Z,14.62
2022-09-18T14:53:31.970Z,14.43
2022-09-18T14:56:05.800Z,14.45
2022-09-18T14:58:38.152Z,14.43
2022-09-18T15:01:10.141Z,14.53
2022-09-18T15:03:41.524Z,14.74
2022-09-18T15:06:17.253Z,14.73
2022-09-18T15:08:49.374Z,14.85
2022-09-18T15:11:23.253Z,14.92
2022-09-18T15:13:54.707Z,14.87
2022-09-18T15:16:28.582Z,14.90
2022-09-18T15:18:58.481Z,14.87
2022-09-18T15:21:33.053Z,14.79
2022-09-18T15:24:04.091Z,14.72
2022-09-18T15:26:40.282Z,14.73
2022-09-18T15:29:18.696Z,14.73
2022-09-18T15:31:47.999Z,14.67
2022-09-18T15:34:21.103Z,14.63
2022-09-18T15:36:57.166Z,14.48
2022-09-18T15:39:32.775Z,14.53
2022-09-18T15:42:20.038Z,14.48
2022-09-18T15:45:20.357Z,14.46
2022-09-18T15:47:50.318Z,14.48
2022-09-18T15:50:44.391Z,14.45
2022-09-18T15:53:30.851Z,14.45
2022-09-18T15:56:07.975Z,14.40
2022-09-18T15:58:47.075Z,14.20
2022-09-18T16:01:23.397Z,14.26
2022-09-18T16:04:04.515Z,14.28
2022-09-18T16:06:42.788Z,14.19
2022-09-18T16:09:25.522Z,14.23
2022-09-18T16:11:54.831Z,14.22
2022-09-18T16:14:42.189Z,14.12
2022-09-18T16:17:37.248Z,14.11
2022-09-18T16:20:25.986Z,14.03
2022-09-18T16:22:58.464Z,13.93
2022-09-18T16:25:29.635Z,13.91
2022-09-18T16:28:00.318Z,13.82
2022-09-18T16:30:30.570Z,13.75
2022-09-18T16:33:18.690Z,13.71
2022-09-18T16:35:49.204Z,13.69
2022-09-18T16:38:18.338Z,13.61
2022-09-18T16:40:48.420Z,13.59
2022-09-18T16:43:17.395Z,13.48
2022-09-18T16:45:48.692Z,13.52
2022-09-18T16:48:18.245Z,13.45
2022-09-18T16:50:48.057Z,13.43
2022-09-18T16:53:17.683Z,13.40
2022-09-18T16:55:50.932Z,13.42
2022-09-18T16:58:22.290Z,13.35
2022-09-18T17:00:52.725Z,13.35
2022-09-18T17:03:21.776Z,13.26
2022-09-18T17:05:50.566Z,13.21
2022-09-18T17:08:19.395Z,13.17
2022-09-18T17:10:48.532Z,13.03
2022-09-18T17:13:17.386Z,12.81
2022-09-18T17:15:46.351Z,12.62
2022-09-18T17:18:16.668Z,12.48
2022-09-18T17:20:46.173Z,12.32
2022-09-18T17:23:15.155Z,12.23
2022-09-18T17:25:44.003Z,12.00
2022-09-18T17:28:12.884Z,11.95
2022-09-18T17:30:43.265Z,11.82
2022-09-18T17:33:12.221Z,11.68
2022-09-18T17:35:42.613Z,11.65
2022-09-18T17:38:11.502Z,11.60
2022-09-18T17:40:40.547Z,11.50
2022-09-18T17:43:09.520Z,11.45
2022-09-18T17:45:38.547Z,11.42
2022-09-18T17:48:07.388Z,11.35
2022-09-18T17:50:36.311Z,11.25
2022-09-18T17:53:06.800Z,11.18
2022-09-18T17:55:35.804Z,11.23
2022-09-18T17:58:05.088Z,11.25
2022-09-18T18:00:33.993Z,11.22
2022-09-18T18:03:02.987Z,11.14
2022-09-18T18:05:31.968Z,11.16
2022-09-18T18:08:00.842Z,11.07
2022-09-18T18:10:31.322Z,11.03
2022-09-18T18:13:00.273Z,10.89
2022-09-18T18:15:29.367Z,10.81
2022-09-18T18:17:58.258Z,10.78
2022-09-18T18:20:27.251Z,10.84
2022-09-18T18:22:56.117Z,10.84
2022-09-18T18:25:25.826Z,10.85
2022-09-18T18:27:56.625Z,10.84
2022-09-18T18:30:26.458Z,10.74
2022-09-18T18:32:56.331Z,10.69
2022-09-18T18:35:25.319Z,10.56
2022-09-18T18:37:54.196Z,10.47
2022-09-18T18:40:24.021Z,10.44
2022-09-18T18:42:52.771Z,10.39
2022-09-18T18:45:23.897Z,10.40
2022-09-18T18:47:52.715Z,10.29
2022-09-18T18:50:22.540Z,10.15
2022-09-18T18:52:53.876Z,10.05
2022-09-18T18:55:22.919Z,10.04
2022-09-18T18:57:52.788Z,9.99
2022-09-18T19:00:27.448Z,9.95
2022-09-18T19:02:56.246Z,9.95
2022-09-18T19:05:30.479Z,9.93
2022-09-18T19:07:59.694Z,9.84
2022-09-18T19:10:29.620Z,9.92
2022-09-18T19:12:58.834Z,9.95
2022-09-18T19:15:29.647Z,9.91
2022-09-18T19:17:59.359Z,9.93
2022-09-18T19:20:28.101Z,9.84
2022-09-18T19:22:58.050Z,9.90
2022-09-18T19:25:27.951Z,9.81
2022-09-18T19:27:57.388Z,9.78
2022-09-18T19:30:27.326Z,9.82
2022-09-18T19:32:57.611Z,9.70
2022-09-18T19:35:26.361Z,9.76
2022-09-18T19:37:55.196Z,9.74
2022-09-18T19:40:24.244Z,9.75
2022-09-18T19:43:00.347Z,9.71
2022-09-18T19:45:32.964Z,9.68
2022-09-18T19:48:05.058Z,9.50
2022-09-18T19:50:37.813Z,9.50
2022-09-18T19:53:06.882Z,9.54
2022-09-18T19:55:35.819Z,9.53
2022-09-18T19:58:04.518Z,9.42
2022-09-18T20:00:33.251Z,9.26
2022-09-18T20:03:03.388Z,9.16
2022-09-18T20:05:33.383Z,9.15
2022-09-18T20:08:03.961Z,8.93
2022-09-18T20:10:32.848Z,8.80
2022-09-18T20:13:01.539Z,8.79
2022-09-18T20:15:30.342Z,8.82
2022-09-18T20:17:59.737Z,8.87
2022-09-18T20:20:30.452Z,8.82
2022-09-18T20:22:59.278Z,8.77
2022-09-18T20:25:28.093Z,8.64
2022-09-18T20:27:56.838Z,8.59
2022-09-18T20:30:26.167Z,8.49
2022-09-18T20:32:55.741Z,8.51
2022-09-18T20:35:24.443Z,8.39
2022-09-18T20:37:56.336Z,8.21
2022-09-18T20:40:25.151Z,8.15
2022-09-18T20:42:54.005Z,8.19
2022-09-18T20:45:23.252Z,8.12
2022-09-18T20:47:52.012Z,8.11
2022-09-18T20:50:25.784Z,8.17
2022-09-18T20:52:55.900Z,8.13
2022-09-18T20:55:25.064Z,8.05
2022-09-18T20:57:53.802Z,7.93
2022-09-18T21:00:22.685Z,7.81
2022-09-18T21:02:53.495Z,7.84
2022-09-18T21:05:22.249Z,7.75
2022-09-18T21:07:57.495Z,7.70
2022-09-18T21:10:29.247Z,7.59
2022-09-18T21:12:58.891Z,7.48
2022-09-18T21:15:28.819Z,7.47
2022-09-18T21:17:57.589Z,7.46
2022-09-18T21:20:26.908Z,7.39
2022-09-18T21:23:09.423Z,7.44
2022-09-18T21:25:39.627Z,7.43
2022-09-18T21:28:08.732Z,7.44
2022-09-18T21:30:37.333Z,7.57
2022-09-18T21:33:08.775Z,7.67
2022-09-18T21:35:37.431Z,7.67
2022-09-18T21:38:08.565Z,7.83
2022-09-18T21:40:40.456Z,7.88
2022-09-18T21:43:09.923Z,7.65
2022-09-18T21:45:38.732Z,7.83
2022-09-18T21:48:07.543Z,7.81
2022-09-18T21:50:36.734Z,7.79
2022-09-18T21:53:05.536Z,7.77
2022-09-18T21:55:37.853Z,7.74
2022-09-18T21:58:08.327Z,7.50
2022-09-18T22:00:37.032Z,7.38
2022-09-18T22:03:05.987Z,7.58
2022-09-18T22:05:36.619Z,7.68
2022-09-18T22:08:05.488Z,7.71
2022-09-18T22:10:35.389Z,7.68
2022-09-18T22:13:04.192Z,7.71
2022-09-18T22:15:34.290Z,7.77
2022-09-18T22:18:03.086Z,7.80
2022-09-18T22:20:31.775Z,7.86
2022-09-18T22:23:00.503Z,7.74
2022-09-18T22:25:30.206Z,7.52
2022-09-18T22:27:59.147Z,7.43
2022-09-18T22:30:27.930Z,7.58
2022-09-18T22:32:58.236Z,7.41
2022-09-18T22:35:27.030Z,7.35
2022-09-18T22:37:56.224Z,7.25
2022-09-18T22:40:25.703Z,7.03
2022-09-18T22:42:54.616Z,7.02
2022-09-18T22:45:23.533Z,7.06
2022-09-18T22:47:52.276Z,7.03
2022-09-18T22:50:22.658Z,7.05
2022-09-18T22:52:51.449Z,6.95
2022-09-18T22:55:21.920Z,7.00
2022-09-18T22:57:50.904Z,7.03
2022-09-18T23:00:19.812Z,6.86
2022-09-18T23:02:48.481Z,6.85
2022-09-18T23:05:17.777Z,6.84
2022-09-18T23:07:49.384Z,6.76
2022-09-18T23:10:18.390Z,6.73
2022-09-18T23:12:47.384Z,6.67
2022-09-18T23:15:16.137Z,6.72
2022-09-18T23:17:45.421Z,6.73
2022-09-18T23:20:15.538Z,6.71
2022-09-18T23:22:45.019Z,6.78
2022-09-18T23:25:15.348Z,6.85
2022-09-18T23:27:44.238Z,6.89
2022-09-18T23:30:13.414Z,6.85
2022-09-18T23:32:42.101Z,6.85
2022-09-18T23:35:11.295Z,6.73
2022-09-18T23:37:40.096Z,6.81
2022-09-18T23:40:10.455Z,6.85
2022-09-18T23:42:40.738Z,6.63
2022-09-18T23:45:10.582Z,6.46
2022-09-18T23:47:39.264Z,6.68
2022-09-18T23:50:08.869Z,6.34
2022-09-18T23:52:37.615Z,6.56
2022-09-18T23:55:06.981Z,6.57
2022-09-18T23:57:36.155Z,6.60
